createdAt,value
2018-04-24T00:00:20.846Z,22.90
2018-04-24T00:02:48.548Z,22.90
2018-04-24T00:05:16.006Z,22.90
2018-04-24T00:07:43.628Z,22.90
2018-04-24T00:10:11.091Z,22.90
2018-04-24T00:12:38.554Z,22.90
2018-04-24T00:15:06.038Z,22.90
2018-04-24T00:17:34.258Z,22.90
2018-04-24T00:20:01.715Z,22.90
2018-04-24T00:22:29.447Z,22.90
2018-04-24T00:24:56.925Z,22.90
2018-04-24T00:27:24.406Z,22.90
2018-04-24T00:29:51.972Z,22.90
2018-04-24T00:32:19.497Z,22.90
2018-04-24T00:34:46.946Z,22.90
2018-04-24T00:37:14.493Z,22.90
2018-04-24T00:39:42.114Z,22.90
2018-04-24T00:42:09.617Z,22.90
2018-04-24T00:44:37.075Z,22.90
2018-04-24T00:47:04.605Z,22.90
2018-04-24T00:49:32.390Z,22.90
2018-04-24T00:52:00.020Z,22.90
2018-04-24T00:54:27.471Z,22.90
2018-04-24T00:56:54.958Z,22.90
2018-04-24T00:59:23.430Z,22.90
2018-04-24T01:01:50.883Z,22.90
2018-04-24T01:04:18.663Z,22.90
2018-04-24T01:06:46.161Z,22.90
2018-04-24T01:09:13.871Z,22.90
2018-04-24T01:11:41.347Z,22.90
2018-04-24T01:14:08.983Z,22.90
2018-04-24T01:16:36.454Z,22.90
2018-04-24T01:19:03.917Z,22.90
2018-04-24T01:21:32.406Z,22.90
2018-04-24T01:24:00.051Z,22.90
2018-04-24T01:26:28.378Z,22.90
2018-04-24T01:28:55.841Z,22.90
2018-04-24T01:31:23.343Z,22.90
2018-04-24T01:33:50.790Z,22.90
2018-04-24T01:36:19.279Z,22.90
2018-04-24T01:38:47.054Z,22.90
2018-04-24T01:41:14.723Z,22.90
2018-04-24T01:43:42.191Z,22.90
2018-04-24T01:46:09.719Z,22.90
2018-04-24T01:48:37.202Z,22.90
2018-04-24T01:51:04.811Z,22.90
2018-04-24T01:53:32.305Z,22.90
2018-04-24T01:55:59.845Z,22.90
2018-04-24T01:58:27.318Z,22.80
2018-04-24T02:00:55.073Z,22.90
2018-04-24T02:03:22.529Z,22.90
2018-04-24T02:05:50.005Z,22.90
2018-04-24T02:08:17.463Z,22.90
2018-04-24T02:10:45.109Z,22.90
2018-04-24T02:13:12.594Z,22.90
2018-04-24T02:15:40.046Z,22.90
2018-04-24T02:18:07.573Z,22.90
2018-04-24T02:20:35.214Z,22.90
2018-04-24T02:23:02.810Z,22.90
2018-04-24T02:25:30.558Z,22.90
2018-04-24T02:27:58.176Z,22.90
2018-04-24T02:30:26.591Z,22.90
2018-04-24T02:32:54.095Z,22.80
2018-04-24T02:35:21.550Z,22.90
2018-04-24T02:37:49.002Z,22.90
2018-04-24T02:40:16.469Z,22.90
2018-04-24T02:42:43.971Z,22.90
2018-04-24T02:45:11.455Z,22.90
2018-04-24T02:47:39.074Z,22.90
2018-04-24T02:50:06.557Z,22.90
2018-04-24T02:52:34.131Z,22.90
2018-04-24T02:55:01.773Z,22.90
2018-04-24T02:57:29.343Z,22.90
2018-04-24T02:59:56.802Z,22.90
2018-04-24T03:02:24.486Z,22.90
2018-04-24T03:04:51.960Z,22.90
2018-04-24T03:07:19.494Z,22.90
2018-04-24T03:09:46.940Z,22.80
2018-04-24T03:12:14.411Z,22.90
2018-04-24T03:14:42.158Z,22.90
2018-04-24T03:17:09.782Z,22.90
2018-04-24T03:19:37.290Z,22.90
2018-04-24T03:22:04.851Z,22.90
2018-04-24T03:24:32.603Z,22.90
2018-04-24T03:27:00.221Z,22.90
2018-04-24T03:29:27.833Z,22.90
2018-04-24T03:31:55.402Z,22.90
2018-04-24T03:34:23.662Z,22.80
2018-04-24T03:36:51.286Z,22.90
2018-04-24T03:39:18.783Z,22.90
2018-04-24T03:41:47.182Z,22.80
2018-04-24T03:44:14.650Z,22.80
2018-04-24T03:46:42.166Z,22.80
2018-04-24T03:49:09.624Z,22.80
2018-04-24T03:51:37.090Z,22.80
2018-04-24T03:54:04.553Z,22.80
2018-04-24T03:56:32.218Z,22.80
2018-04-24T03:58:59.758Z,22.80
2018-04-24T04:01:27.390Z,22.90
2018-04-24T04:03:54.846Z,22.80
2018-04-24T04:06:22.292Z,22.80
2018-04-24T04:08:49.791Z,22.80
2018-04-24T04:11:18.010Z,22.90
2018-04-24T04:13:46.113Z,22.80
2018-04-24T04:16:13.799Z,22.90
2018-04-24T04:18:53.189Z,22.90
2018-04-24T04:21:32.534Z,22.90
2018-04-24T04:24:12.646Z,22.80
2018-04-24T04:26:40.095Z,22.80
2018-04-24T04:29:07.656Z,22.80
2018-04-24T04:31:35.225Z,22.80
2018-04-24T04:34:03.451Z,22.80
2018-04-24T04:36:31.177Z,22.80
2018-04-24T04:38:58.629Z,22.80
2018-04-24T04:41:26.246Z,22.80
2018-04-24T04:43:53.646Z,22.80
2018-04-24T04:46:21.110Z,22.80
2018-04-24T04:48:48.562Z,22.80
2018-04-24T04:51:16.287Z,22.80
2018-04-24T04:53:44.059Z,22.80
2018-04-24T04:56:11.582Z,22.80
2018-04-24T04:58:38.986Z,22.80
2018-04-24T05:01:06.730Z,22.80
2018-04-24T05:03:34.503Z,22.80
2018-04-24T05:06:01.966Z,22.80
2018-04-24T05:08:29.440Z,22.80
2018-04-24T05:10:57.038Z,22.80
2018-04-24T05:13:24.581Z,22.80
2018-04-24T05:15:52.031Z,22.80
2018-04-24T05:18:19.478Z,22.80
2018-04-24T05:20:47.705Z,22.80
2018-04-24T05:23:15.306Z,22.80
2018-04-24T05:25:42.753Z,22.80
2018-04-24T05:28:10.313Z,22.80
2018-04-24T05:30:37.763Z,22.80
2018-04-24T05:33:05.227Z,22.80
2018-04-24T05:35:32.870Z,22.80
2018-04-24T05:38:01.278Z,22.80
2018-04-24T05:40:28.805Z,22.80
2018-04-24T05:42:56.442Z,22.80
2018-04-24T05:45:23.976Z,22.80
2018-04-24T05:47:51.483Z,22.80
2018-04-24T05:50:19.235Z,22.80
2018-04-24T05:52:46.726Z,22.80
2018-04-24T05:55:14.647Z,22.90
2018-04-24T05:57:42.151Z,22.90
2018-04-24T06:00:09.602Z,22.90
2018-04-24T06:02:37.061Z,22.90
2018-04-24T06:05:04.553Z,22.90
2018-04-24T06:07:32.069Z,22.90
2018-04-24T06:09:59.529Z,22.90
2018-04-24T06:12:26.990Z,22.90
2018-04-24T06:14:54.634Z,22.80
2018-04-24T06:17:22.079Z,22.90
2018-04-24T06:19:49.652Z,22.90
2018-04-24T06:22:17.115Z,22.90
2018-04-24T06:24:44.754Z,22.90
2018-04-24T06:27:12.367Z,22.90
2018-04-24T06:29:39.827Z,22.80
2018-04-24T06:32:07.531Z,22.90
2018-04-24T06:34:35.003Z,22.90
2018-04-24T06:37:02.625Z,22.90
2018-04-24T06:39:30.530Z,22.90
2018-04-24T06:41:58.103Z,22.90
2018-04-24T06:44:25.640Z,22.90
2018-04-24T06:46:53.158Z,22.90
2018-04-24T06:49:20.611Z,22.90
2018-04-24T06:51:48.122Z,22.90
2018-04-24T06:54:15.581Z,22.90
2018-04-24T06:56:43.197Z,22.90
2018-04-24T06:59:10.802Z,22.90
2018-04-24T07:01:38.261Z,22.90
2018-04-24T07:04:05.902Z,22.90
2018-04-24T07:06:33.476Z,22.90
2018-04-24T07:09:00.934Z,22.90
2018-04-24T07:11:28.402Z,22.90
2018-04-24T07:13:56.154Z,22.90
2018-04-24T07:16:23.975Z,22.90
2018-04-24T07:18:51.661Z,22.90
2018-04-24T07:21:19.109Z,22.90
2018-04-24T07:23:46.622Z,22.90
2018-04-24T07:26:14.065Z,22.90
2018-04-24T07:28:41.524Z,23.00
2018-04-24T07:31:09.020Z,22.90
2018-04-24T07:33:36.739Z,22.90
2018-04-24T07:36:04.295Z,22.90
2018-04-24T07:38:31.827Z,22.90
2018-04-24T07:40:59.445Z,23.00
2018-04-24T07:43:27.142Z,23.00
2018-04-24T07:45:54.619Z,23.00
2018-04-24T07:48:22.270Z,23.00
2018-04-24T07:50:49.754Z,23.00
2018-04-24T07:53:17.214Z,23.00
2018-04-24T07:55:44.678Z,23.00
2018-04-24T07:58:13.065Z,23.00
2018-04-24T08:00:40.635Z,23.00
2018-04-24T08:03:08.390Z,23.00
2018-04-24T08:05:36.026Z,23.00
2018-04-24T08:08:03.490Z,23.00
2018-04-24T08:10:31.046Z,23.00
2018-04-24T08:12:58.497Z,23.00
2018-04-24T08:15:25.970Z,23.00
2018-04-24T08:17:53.598Z,23.00
2018-04-24T08:20:21.186Z,23.00
2018-04-24T08:22:48.713Z,23.00
2018-04-24T08:25:16.104Z,23.00
2018-04-24T08:27:43.674Z,23.00
2018-04-24T08:30:11.902Z,23.00
2018-04-24T08:32:39.345Z,23.00
2018-04-24T08:35:06.870Z,23.00
2018-04-24T08:37:34.662Z,23.00
2018-04-24T08:40:02.393Z,23.00
2018-04-24T08:42:29.795Z,23.00
2018-04-24T08:44:57.265Z,23.00
2018-04-24T08:47:24.767Z,23.00
2018-04-24T08:49:52.252Z,23.00
2018-04-24T08:52:19.980Z,23.00
2018-04-24T08:54:47.726Z,23.00
2018-04-24T08:57:15.359Z,23.00
2018-04-24T08:59:42.864Z,23.00
2018-04-24T09:02:10.401Z,23.00
2018-04-24T09:04:39.665Z,23.00
2018-04-24T09:07:07.163Z,23.00
2018-04-24T09:09:34.947Z,23.00
2018-04-24T09:12:02.627Z,23.00
2018-04-24T09:14:30.078Z,23.00
2018-04-24T09:16:57.533Z,23.00
2018-04-24T09:19:24.982Z,23.00
2018-04-24T09:21:52.451Z,23.00
2018-04-24T09:24:19.918Z,23.00
2018-04-24T09:26:47.369Z,23.00
2018-04-24T09:29:14.884Z,23.00
2018-04-24T09:31:43.121Z,23.00
2018-04-24T09:34:10.584Z,23.00
2018-04-24T09:36:38.176Z,23.00
2018-04-24T09:39:06.540Z,23.00
2018-04-24T09:41:33.912Z,23.00
2018-04-24T09:44:02.219Z,23.00
2018-04-24T09:46:29.595Z,23.00
2018-04-24T09:48:57.070Z,23.00
2018-04-24T09:51:24.606Z,23.00
2018-04-24T09:53:51.986Z,23.00
2018-04-24T09:56:19.548Z,23.00
2018-04-24T09:58:46.997Z,23.00
2018-04-24T10:01:14.476Z,23.00
2018-04-24T10:03:41.950Z,23.00
2018-04-24T10:06:10.153Z,22.90
2018-04-24T10:08:37.778Z,22.90
2018-04-24T10:11:05.246Z,22.90
2018-04-24T10:13:33.721Z,23.00
2018-04-24T10:16:01.357Z,22.90
2018-04-24T10:18:28.934Z,22.90
2018-04-24T10:20:56.567Z,22.90
2018-04-24T10:23:24.095Z,22.90
2018-04-24T10:25:51.557Z,22.90
2018-04-24T10:28:19.086Z,22.90
2018-04-24T10:30:46.550Z,22.90
2018-04-24T10:33:14.217Z,22.90
2018-04-24T10:35:41.670Z,22.90
2018-04-24T10:38:09.153Z,22.90
2018-04-24T10:40:36.623Z,23.00
2018-04-24T10:43:04.421Z,23.00
2018-04-24T10:45:31.885Z,22.90
2018-04-24T10:47:59.513Z,23.00
2018-04-24T10:50:27.018Z,23.00
2018-04-24T10:52:55.394Z,23.00
2018-04-24T10:55:22.960Z,22.90
2018-04-24T10:57:50.511Z,23.00
2018-04-24T11:00:18.046Z,23.00
2018-04-24T11:02:45.618Z,23.00
2018-04-24T11:05:13.263Z,23.00
2018-04-24T11:07:40.718Z,23.00
2018-04-24T11:10:08.299Z,23.00
2018-04-24T11:12:35.858Z,23.00
2018-04-24T11:15:03.332Z,23.00
2018-04-24T11:17:31.562Z,23.00
2018-04-24T11:19:59.025Z,23.00
2018-04-24T11:22:26.523Z,23.00
2018-04-24T11:24:54.410Z,23.00
2018-04-24T11:27:22.830Z,23.00
2018-04-24T11:29:50.418Z,23.00
2018-04-24T11:32:18.183Z,23.00
2018-04-24T11:34:45.821Z,23.00
2018-04-24T11:37:13.638Z,23.00
2018-04-24T11:39:41.163Z,23.00
2018-04-24T11:42:08.913Z,23.00
2018-04-24T11:44:36.576Z,23.00
2018-04-24T11:47:04.041Z,23.00
2018-04-24T11:49:31.656Z,23.00
2018-04-24T11:51:59.091Z,23.00
2018-04-24T11:54:26.542Z,23.00
2018-04-24T11:56:54.283Z,23.00
2018-04-24T11:59:22.062Z,23.00
2018-04-24T12:01:49.526Z,23.00
2018-04-24T12:04:17.180Z,23.10
2018-04-24T12:06:44.726Z,23.10
2018-04-24T12:09:12.386Z,23.10
2018-04-24T12:11:39.882Z,23.10
2018-04-24T12:14:07.347Z,23.10
2018-04-24T12:16:35.010Z,23.10
2018-04-24T12:19:02.671Z,23.10
2018-04-24T12:21:30.133Z,23.10
2018-04-24T12:23:57.787Z,23.10
2018-04-24T12:26:25.314Z,23.10
2018-04-24T12:28:52.773Z,23.10
2018-04-24T12:31:20.365Z,23.10
2018-04-24T12:33:47.904Z,23.10
2018-04-24T12:36:15.449Z,23.10
2018-04-24T12:38:42.967Z,23.10
2018-04-24T12:41:10.558Z,23.00
2018-04-24T12:43:38.091Z,23.00
2018-04-24T12:46:05.750Z,23.10
2018-04-24T12:48:33.336Z,23.10
2018-04-24T12:51:01.117Z,23.10
2018-04-24T12:53:28.575Z,23.10
2018-04-24T12:55:56.496Z,23.10
2018-04-24T12:58:24.109Z,23.10
2018-04-24T13:00:51.589Z,23.10
2018-04-24T13:03:19.034Z,23.10
2018-04-24T13:05:46.495Z,23.10
2018-04-24T13:08:14.205Z,23.10
2018-04-24T13:10:41.666Z,23.10
2018-04-24T13:13:09.284Z,23.10
2018-04-24T13:15:36.766Z,23.10
2018-04-24T13:18:04.218Z,23.10
2018-04-24T13:20:31.722Z,23.10
2018-04-24T13:23:00.112Z,23.10
2018-04-24T13:25:27.629Z,23.00
2018-04-24T13:27:55.096Z,23.10
2018-04-24T13:30:22.550Z,23.10
2018-04-24T13:32:50.213Z,23.10
2018-04-24T13:35:17.781Z,23.10
2018-04-24T13:37:45.238Z,23.10
2018-04-24T13:40:12.998Z,23.10
2018-04-24T13:42:40.450Z,23.10
2018-04-24T13:45:08.238Z,23.10
2018-04-24T13:47:35.829Z,23.10
2018-04-24T13:50:03.435Z,23.10
2018-04-24T13:52:31.062Z,23.10
2018-04-24T13:54:58.568Z,23.10
2018-04-24T13:57:26.022Z,23.10
2018-04-24T13:59:53.479Z,23.10
2018-04-24T14:02:21.032Z,23.10
2018-04-24T14:04:48.668Z,23.10
2018-04-24T14:07:16.426Z,23.10
2018-04-24T14:09:43.900Z,23.10
2018-04-24T14:12:11.461Z,23.00
2018-04-24T14:14:38.874Z,23.10
2018-04-24T14:17:06.330Z,23.10
2018-04-24T14:19:33.839Z,23.10
2018-04-24T14:22:01.327Z,23.00
2018-04-24T14:24:28.774Z,23.00
2018-04-24T14:26:56.265Z,23.10
2018-04-24T14:29:23.710Z,23.00
2018-04-24T14:31:51.368Z,23.00
2018-04-24T14:34:18.886Z,23.00
2018-04-24T14:36:46.555Z,23.00
2018-04-24T14:39:14.006Z,23.00
2018-04-24T14:41:41.595Z,23.00
2018-04-24T14:44:09.054Z,23.00
2018-04-24T14:46:36.534Z,23.00
2018-04-24T14:49:03.988Z,23.00
2018-04-24T14:51:31.471Z,23.00
2018-04-24T14:53:58.922Z,23.00
2018-04-24T14:56:26.380Z,23.00
2018-04-24T14:58:54.071Z,23.00
2018-04-24T15:01:21.711Z,23.00
2018-04-24T15:03:49.234Z,23.10
2018-04-24T15:06:16.679Z,23.00
2018-04-24T15:08:44.402Z,22.90
2018-04-24T15:11:11.884Z,22.70
2018-04-24T15:13:40.288Z,22.20
2018-04-24T15:16:07.810Z,22.20
2018-04-24T15:18:35.435Z,22.00
2018-04-24T15:29:44.133Z,20.20
2018-04-24T15:32:11.942Z,19.30
2018-04-24T15:34:39.530Z,19.00
2018-04-24T15:37:07.054Z,19.20
2018-04-24T15:39:34.600Z,19.30
2018-04-24T15:42:08.515Z,19.80
2018-04-24T15:44:36.470Z,19.80
2018-04-24T15:47:04.361Z,19.60
2018-04-24T15:49:32.651Z,18.40
2018-04-24T15:52:00.968Z,17.80
2018-04-24T15:54:29.320Z,17.70
2018-04-24T15:56:57.128Z,17.20
2018-04-24T15:59:25.047Z,16.90
2018-04-24T16:01:59.366Z,16.60
2018-04-24T16:04:27.970Z,16.50
2018-04-24T16:06:56.201Z,16.60
2018-04-24T16:09:26.783Z,17.40
2018-04-24T16:11:57.222Z,17.90
2018-04-24T16:14:27.660Z,17.90
2018-04-24T16:16:55.148Z,17.70
2018-04-24T16:19:23.383Z,17.60
2018-04-24T16:21:51.617Z,17.30
2018-04-24T16:24:27.136Z,17.00
2018-04-24T16:26:59.806Z,16.60
2018-04-24T16:29:28.284Z,16.30
2018-04-24T16:34:54.489Z,15.70
2018-04-24T16:37:22.374Z,15.40
2018-04-24T16:39:50.374Z,15.20
2018-04-24T16:42:18.083Z,15.10
2018-04-24T16:44:47.235Z,14.70
2018-04-24T16:47:16.635Z,14.70
2018-04-24T16:49:44.303Z,14.50
2018-04-24T16:52:20.752Z,14.40
2018-04-24T16:54:48.468Z,14.30
2018-04-24T16:57:16.033Z,14.30
2018-04-24T16:59:53.978Z,14.10
2018-04-24T17:02:23.550Z,14.10
2018-04-24T17:04:51.710Z,14.00
2018-04-24T17:11:27.250Z,13.80
2018-04-24T17:13:56.555Z,13.70
2018-04-24T17:16:24.711Z,13.70
2018-04-24T18:31:43.409Z,12.30
2018-04-24T18:34:12.415Z,12.20
2018-04-24T18:36:43.865Z,12.20
2018-04-24T18:39:13.621Z,12.10
2018-04-24T18:41:41.860Z,12.00
2018-04-24T18:44:11.521Z,12.00
2018-04-24T18:46:40.132Z,12.00
2018-04-24T18:49:09.106Z,11.90
2018-04-24T18:51:51.982Z,11.90
2018-04-24T18:54:20.011Z,11.80
2018-04-24T18:56:49.480Z,11.70
2018-04-24T18:59:18.384Z,11.60
2018-04-24T19:01:46.700Z,11.50
2018-04-24T19:04:14.446Z,11.40
2018-04-24T19:06:42.147Z,11.30
2018-04-24T19:09:09.616Z,11.30
2018-04-24T19:11:37.107Z,11.20
2018-04-24T19:14:11.165Z,11.20
2018-04-24T19:16:38.698Z,11.20
2018-04-24T19:19:12.110Z,11.10
2018-04-24T19:21:41.129Z,11.10
2018-04-24T19:24:08.608Z,11.00
2018-04-24T19:26:36.084Z,10.90
2018-04-24T19:29:03.584Z,10.90
2018-04-24T19:31:37.459Z,10.80
2018-04-24T19:34:05.189Z,10.70
2018-04-24T19:36:32.787Z,10.70
2018-04-24T19:39:05.995Z,10.70
2018-04-24T19:41:39.954Z,10.60
2018-04-24T19:44:07.455Z,10.60
2018-04-24T19:46:35.834Z,10.60
2018-04-24T19:49:12.905Z,10.60
2018-04-24T19:51:45.319Z,10.60
2018-04-24T19:54:12.831Z,10.60
2018-04-24T19:56:40.348Z,10.50
2018-04-24T19:59:09.891Z,10.40
2018-04-24T20:02:08.506Z,10.40
2018-04-24T20:04:36.316Z,10.40
2018-04-24T20:07:04.540Z,10.30
2018-04-24T20:09:32.908Z,10.20
2018-04-24T20:12:00.459Z,10.20
2018-04-24T20:14:29.177Z,10.20
2018-04-24T20:16:56.723Z,10.20
2018-04-24T20:19:24.329Z,10.10
2018-04-24T20:21:56.828Z,10.10
2018-04-24T20:24:24.319Z,10.10
2018-04-24T20:26:52.021Z,10.10
2018-04-24T20:29:19.552Z,10.10
2018-04-24T20:31:47.111Z,10.10
2018-04-24T20:34:14.629Z,10.10
2018-04-24T20:36:42.432Z,10.10
2018-04-24T20:39:09.948Z,10.10
2018-04-24T20:41:37.443Z,10.10
2018-04-24T20:44:04.942Z,10.10
2018-04-24T20:46:32.429Z,10.10
2018-04-24T20:49:00.031Z,10.10
2018-04-24T20:51:27.756Z,10.10
2018-04-24T20:53:56.436Z,10.10
2018-04-24T20:56:23.987Z,10.10
2018-04-24T20:58:52.960Z,10.10
2018-04-24T21:01:20.486Z,10.20
2018-04-24T21:03:47.997Z,10.20
2018-04-24T21:06:15.763Z,10.20
2018-04-24T21:08:43.951Z,10.20
2018-04-24T21:11:11.492Z,10.20
2018-04-24T21:13:39.488Z,10.20
2018-04-24T21:16:07.220Z,10.20
2018-04-24T21:18:34.723Z,10.10
2018-04-24T21:21:13.037Z,10.10
2018-04-24T21:23:41.167Z,10.10
2018-04-24T21:26:08.647Z,10.10
2018-04-24T21:28:37.400Z,10.00
2018-04-24T21:31:05.904Z,10.00
2018-04-24T21:33:33.410Z,10.00
2018-04-24T21:36:00.938Z,10.00
2018-04-24T21:38:29.123Z,9.90
2018-04-24T21:41:03.095Z,9.90
2018-04-24T21:43:30.775Z,9.90
2018-04-24T21:45:58.275Z,9.80
2018-04-24T21:48:25.779Z,9.90
2018-04-24T21:50:53.874Z,9.80
2018-04-24T21:53:21.364Z,9.90
2018-04-24T21:55:48.881Z,9.90
2018-04-24T21:58:16.469Z,9.90
2018-04-24T22:00:43.989Z,9.90
2018-04-24T22:03:11.456Z,9.90
2018-04-24T22:05:39.404Z,9.90
2018-04-24T22:08:06.877Z,9.90
2018-04-24T22:10:34.801Z,9.80
2018-04-24T22:13:02.266Z,9.80
2018-04-24T22:15:29.744Z,9.80
2018-04-24T22:17:57.279Z,9.80
2018-04-24T22:20:30.281Z,9.80
2018-04-24T22:22:57.768Z,9.80
2018-04-24T22:25:25.261Z,9.80
2018-04-24T22:27:52.736Z,9.80
2018-04-24T22:30:22.338Z,9.80
2018-04-24T22:32:49.811Z,9.80
2018-04-24T22:35:17.308Z,9.80
2018-04-24T22:37:44.819Z,9.80
2018-04-24T22:40:13.095Z,9.70
2018-04-24T22:42:40.592Z,9.70
2018-04-24T22:45:08.113Z,9.70
2018-04-24T22:47:35.599Z,9.70
2018-04-24T22:50:03.085Z,9.70
2018-04-24T22:52:31.326Z,9.70
2018-04-24T22:54:58.820Z,9.60
2018-04-24T22:57:26.332Z,9.60
2018-04-24T22:59:53.847Z,9.60
2018-04-24T23:02:21.339Z,9.60
2018-04-24T23:04:49.585Z,9.60
2018-04-24T23:07:17.068Z,9.50
2018-04-24T23:09:53.786Z,9.60
2018-04-24T23:12:33.120Z,9.50
2018-04-24T23:15:12.892Z,9.60
2018-04-24T23:17:52.868Z,9.50
2018-04-24T23:20:19.867Z,9.50
2018-04-24T23:22:47.382Z,9.50
2018-04-24T23:25:14.848Z,9.50
2018-04-24T23:27:43.317Z,9.50
2018-04-24T23:30:10.801Z,9.40
2018-04-24T23:32:38.274Z,9.40
2018-04-24T23:35:06.618Z,9.40
2018-04-24T23:37:34.099Z,9.40
2018-04-24T23:40:01.703Z,9.40
2018-04-24T23:42:29.212Z,9.40
2018-04-24T23:44:56.699Z,9.50
2018-04-24T23:47:27.160Z,9.50
2018-04-24T23:49:55.814Z,9.40
2018-04-24T23:52:23.511Z,9.50
2018-04-24T23:54:51.999Z,9.40
2018-04-24T23:57:19.483Z,9.40
2018-04-24T23:59:47.168Z,9.40
